sensor_id;sensor_type;location;lat;lon;timestamp;temperature;humidity
58517;DHT22;44308;50.810;0.284;2023-03-01T00:01:48;1.10;99.90
58517;DHT22;44308;50.810;0.284;2023-03-01T00:04:14;1.00;99.90
58517;DHT22;44308;50.810;0.284;2023-03-01T00:06:42;1.00;99.90
58517;DHT22;44308;50.810;0.284;2023-03-01T00:09:08;1.00;99.90
58517;DHT22;44308;50.810;0.284;2023-03-01T00:11:34;1.00;99.90
58517;DHT22;44308;50.810;0.284;2023-03-01T00:14:01;1.00;99.90
58517;DHT22;44308;50.810;0.284;2023-03-01T00:16:32;1.00;99.90
58517;DHT22;44308;50.810;0.284;2023-03-01T00:19:01;1.10;99.90
58517;DHT22;44308;50.810;0.284;2023-03-01T00:21:28;1.10;99.90
58517;DHT22;44308;50.810;0.284;2023-03-01T00:23:54;1.00;99.90
58517;DHT22;44308;50.810;0.284;2023-03-01T00:26:22;1.00;99.90
58517;DHT22;44308;50.810;0.284;2023-03-01T00:28:48;1.00;99.90
58517;DHT22;44308;50.810;0.284;2023-03-01T00:31:17;1.10;99.90
58517;DHT22;44308;50.810;0.284;2023-03-01T00:33:43;1.00;99.90
58517;DHT22;44308;50.810;0.284;2023-03-01T00:36:11;1.00;99.90
58517;DHT22;44308;50.810;0.284;2023-03-01T00:38:42;1.00;99.90
58517;DHT22;44308;50.810;0.284;2023-03-01T00:41:10;1.00;99.90
58517;DHT22;44308;50.810;0.284;2023-03-01T00:43:36;0.90;99.90
58517;DHT22;44308;50.810;0.284;2023-03-01T00:46:07;0.90;99.90
58517;DHT22;44308;50.810;0.284;2023-03-01T00:48:33;0.90;99.90
58517;DHT22;44308;50.810;0.284;2023-03-01T00:53:36;0.80;99.90
58517;DHT22;44308;50.810;0.284;2023-03-01T00:56:03;0.80;99.90
58517;DHT22;44308;50.810;0.284;2023-03-01T00:58:30;0.70;99.90
58517;DHT22;44308;50.810;0.284;2023-03-01T01:00:56;0.60;99.90
58517;DHT22;44308;50.810;0.284;2023-03-01T01:03:22;0.60;99.90
58517;DHT22;44308;50.810;0.284;2023-03-01T01:05:50;0.50;99.90
58517;DHT22;44308;50.810;0.284;2023-03-01T01:08:16;0.50;99.90
58517;DHT22;44308;50.810;0.284;2023-03-01T01:10:44;0.40;99.90
58517;DHT22;44308;50.810;0.284;2023-03-01T01:13:10;0.40;99.90
58517;DHT22;44308;50.810;0.284;2023-03-01T01:15:35;0.40;99.90
58517;DHT22;44308;50.810;0.284;2023-03-01T01:18:01;0.40;99.90
58517;DHT22;44308;50.810;0.284;2023-03-01T01:20:27;0.30;99.90
58517;DHT22;44308;50.810;0.284;2023-03-01T01:22:53;0.30;99.90
58517;DHT22;44308;50.810;0.284;2023-03-01T01:25:19;0.30;99.90
58517;DHT22;44308;50.810;0.284;2023-03-01T01:27:45;0.30;99.90
58517;DHT22;44308;50.810;0.284;2023-03-01T01:30:12;0.30;99.90
58517;DHT22;44308;50.810;0.284;2023-03-01T01:32:38;0.30;99.90
58517;DHT22;44308;50.810;0.284;2023-03-01T01:35:04;0.30;99.90
58517;DHT22;44308;50.810;0.284;2023-03-01T01:37:31;0.40;99.90
58517;DHT22;44308;50.810;0.284;2023-03-01T01:40:00;0.40;99.90
58517;DHT22;44308;50.810;0.284;2023-03-01T01:42:27;0.40;99.90
58517;DHT22;44308;50.810;0.284;2023-03-01T01:45:26;0.40;99.90
58517;DHT22;44308;50.810;0.284;2023-03-01T01:47:55;0.40;99.90
58517;DHT22;44308;50.810;0.284;2023-03-01T01:50:22;0.40;99.90
58517;DHT22;44308;50.810;0.284;2023-03-01T01:52:50;0.40;99.90
58517;DHT22;44308;50.810;0.284;2023-03-01T01:55:23;0.40;99.90
58517;DHT22;44308;50.810;0.284;2023-03-01T01:57:56;0.40;99.90
58517;DHT22;44308;50.810;0.284;2023-03-01T02:00:28;0.50;99.90
58517;DHT22;44308;50.810;0.284;2023-03-01T02:03:08;0.60;99.90
58517;DHT22;44308;50.810;0.284;2023-03-01T02:08:17;0.80;99.90
58517;DHT22;44308;50.810;0.284;2023-03-01T02:10:45;0.90;99.90
58517;DHT22;44308;50.810;0.284;2023-03-01T02:13:12;0.90;99.90
58517;DHT22;44308;50.810;0.284;2023-03-01T02:15:40;0.90;99.90
58517;DHT22;44308;50.810;0.284;2023-03-01T02:18:07;1.00;99.90
58517;DHT22;44308;50.810;0.284;2023-03-01T02:20:43;1.00;99.90
58517;DHT22;44308;50.810;0.284;2023-03-01T02:23:11;1.00;99.90
58517;DHT22;44308;50.810;0.284;2023-03-01T02:25:56;1.10;99.90
58517;DHT22;44308;50.810;0.284;2023-03-01T02:28:36;1.10;99.90
58517;DHT22;44308;50.810;0.284;2023-03-01T02:31:04;1.10;99.90
58517;DHT22;44308;50.810;0.284;2023-03-01T02:33:49;1.10;99.90
58517;DHT22;44308;50.810;0.284;2023-03-01T02:36:19;1.10;99.90
58517;DHT22;44308;50.810;0.284;2023-03-01T02:38:47;1.20;99.90
58517;DHT22;44308;50.810;0.284;2023-03-01T02:41:15;1.20;99.90
58517;DHT22;44308;50.810;0.284;2023-03-01T02:43:42;1.20;99.90
58517;DHT22;44308;50.810;0.284;2023-03-01T02:46:15;1.20;99.90
58517;DHT22;44308;50.810;0.284;2023-03-01T02:48:48;1.30;99.90
58517;DHT22;44308;50.810;0.284;2023-03-01T02:53:56;1.30;99.90
58517;DHT22;44308;50.810;0.284;2023-03-01T02:56:25;1.40;99.90
58517;DHT22;44308;50.810;0.284;2023-03-01T02:58:51;1.40;99.90
58517;DHT22;44308;50.810;0.284;2023-03-01T03:01:19;1.50;99.90
58517;DHT22;44308;50.810;0.284;2023-03-01T03:03:45;1.50;99.90
58517;DHT22;44308;50.810;0.284;2023-03-01T03:06:11;1.50;99.90
58517;DHT22;44308;50.810;0.284;2023-03-01T03:08:37;1.50;99.90
58517;DHT22;44308;50.810;0.284;2023-03-01T03:11:03;1.50;99.90
58517;DHT22;44308;50.810;0.284;2023-03-01T03:13:29;1.60;99.90
58517;DHT22;44308;50.810;0.284;2023-03-01T03:15:56;1.50;99.90
58517;DHT22;44308;50.810;0.284;2023-03-01T03:18:23;1.60;99.90
58517;DHT22;44308;50.810;0.284;2023-03-01T03:20:52;1.60;99.90
58517;DHT22;44308;50.810;0.284;2023-03-01T03:23:19;1.50;99.90
58517;DHT22;44308;50.810;0.284;2023-03-01T03:25:49;1.50;99.90
58517;DHT22;44308;50.810;0.284;2023-03-01T03:28:15;1.60;99.90
58517;DHT22;44308;50.810;0.284;2023-03-01T03:30:42;1.60;99.90
58517;DHT22;44308;50.810;0.284;2023-03-01T03:33:09;1.50;99.90
58517;DHT22;44308;50.810;0.284;2023-03-01T03:38:07;1.50;99.90
58517;DHT22;44308;50.810;0.284;2023-03-01T03:40:48;1.50;99.90
58517;DHT22;44308;50.810;0.284;2023-03-01T03:43:17;1.40;99.90
58517;DHT22;44308;50.810;0.284;2023-03-01T03:45:47;1.40;99.90
58517;DHT22;44308;50.810;0.284;2023-03-01T03:48:13;1.30;99.90
58517;DHT22;44308;50.810;0.284;2023-03-01T03:50:40;1.30;99.90
58517;DHT22;44308;50.810;0.284;2023-03-01T03:53:08;1.20;99.90
58517;DHT22;44308;50.810;0.284;2023-03-01T03:55:35;1.20;99.90
58517;DHT22;44308;50.810;0.284;2023-03-01T03:58:05;1.10;99.90
58517;DHT22;44308;50.810;0.284;2023-03-01T04:00:44;1.00;99.90
58517;DHT22;44308;50.810;0.284;2023-03-01T04:03:12;1.00;99.90
58517;DHT22;44308;50.810;0.284;2023-03-01T04:05:39;1.00;99.90
58517;DHT22;44308;50.810;0.284;2023-03-01T04:08:06;0.90;99.90
58517;DHT22;44308;50.810;0.284;2023-03-01T04:10:40;0.90;99.90
58517;DHT22;44308;50.810;0.284;2023-03-01T04:13:08;0.90;99.90
58517;DHT22;44308;50.810;0.284;2023-03-01T04:15:34;0.90;99.90
58517;DHT22;44308;50.810;0.284;2023-03-01T04:18:00;0.80;99.90
58517;DHT22;44308;50.810;0.284;2023-03-01T04:20:28;0.70;99.90
58517;DHT22;44308;50.810;0.284;2023-03-01T04:22:58;0.70;99.90
58517;DHT22;44308;50.810;0.284;2023-03-01T04:25:25;0.70;99.90
58517;DHT22;44308;50.810;0.284;2023-03-01T04:27:50;0.60;99.90
58517;DHT22;44308;50.810;0.284;2023-03-01T04:30:16;0.60;99.90
58517;DHT22;44308;50.810;0.284;2023-03-01T04:32:42;0.60;99.90
58517;DHT22;44308;50.810;0.284;2023-03-01T04:35:08;0.60;99.90
58517;DHT22;44308;50.810;0.284;2023-03-01T04:37:34;0.50;99.90
58517;DHT22;44308;50.810;0.284;2023-03-01T04:40:01;0.50;99.90
58517;DHT22;44308;50.810;0.284;2023-03-01T04:42:37;0.50;99.90
58517;DHT22;44308;50.810;0.284;2023-03-01T04:45:03;0.40;99.90
58517;DHT22;44308;50.810;0.284;2023-03-01T04:47:40;0.50;99.90
58517;DHT22;44308;50.810;0.284;2023-03-01T04:50:07;0.40;99.90
58517;DHT22;44308;50.810;0.284;2023-03-01T04:52:33;0.40;99.90
58517;DHT22;44308;50.810;0.284;2023-03-01T04:54:59;0.40;99.90
58517;DHT22;44308;50.810;0.284;2023-03-01T04:57:24;0.40;99.90
58517;DHT22;44308;50.810;0.284;2023-03-01T04:59:50;0.40;99.90
58517;DHT22;44308;50.810;0.284;2023-03-01T05:02:16;0.40;99.90
58517;DHT22;44308;50.810;0.284;2023-03-01T05:04:42;0.40;99.90
58517;DHT22;44308;50.810;0.284;2023-03-01T05:07:07;0.40;99.90
58517;DHT22;44308;50.810;0.284;2023-03-01T05:09:33;0.40;99.90
58517;DHT22;44308;50.810;0.284;2023-03-01T05:11:59;0.40;99.90
58517;DHT22;44308;50.810;0.284;2023-03-01T05:14:25;0.40;99.90
58517;DHT22;44308;50.810;0.284;2023-03-01T05:16:50;0.30;99.90
58517;DHT22;44308;50.810;0.284;2023-03-01T05:19:16;0.30;99.90
58517;DHT22;44308;50.810;0.284;2023-03-01T05:21:42;0.30;99.90
58517;DHT22;44308;50.810;0.284;2023-03-01T05:24:28;0.30;99.90
58517;DHT22;44308;50.810;0.284;2023-03-01T05:26:55;0.40;99.90
58517;DHT22;44308;50.810;0.284;2023-03-01T05:29:22;0.40;99.90
58517;DHT22;44308;50.810;0.284;2023-03-01T05:32:00;0.50;99.90
58517;DHT22;44308;50.810;0.284;2023-03-01T05:34:31;0.50;99.90
58517;DHT22;44308;50.810;0.284;2023-03-01T05:37:16;0.50;99.90
58517;DHT22;44308;50.810;0.284;2023-03-01T05:39:42;0.60;99.90
58517;DHT22;44308;50.810;0.284;2023-03-01T05:42:10;0.60;99.90
58517;DHT22;44308;50.810;0.284;2023-03-01T05:44:36;0.60;99.90
58517;DHT22;44308;50.810;0.284;2023-03-01T05:47:02;0.60;99.90
58517;DHT22;44308;50.810;0.284;2023-03-01T05:49:28;0.60;99.90
58517;DHT22;44308;50.810;0.284;2023-03-01T05:51:54;0.70;99.90
58517;DHT22;44308;50.810;0.284;2023-03-01T05:54:21;0.70;99.90
58517;DHT22;44308;50.810;0.284;2023-03-01T05:56:47;0.70;99.90
58517;DHT22;44308;50.810;0.284;2023-03-01T05:59:13;0.70;99.90
58517;DHT22;44308;50.810;0.284;2023-03-01T06:01:40;0.60;99.90
58517;DHT22;44308;50.810;0.284;2023-03-01T06:04:06;0.60;99.90
58517;DHT22;44308;50.810;0.284;2023-03-01T06:06:35;0.50;99.90
58517;DHT22;44308;50.810;0.284;2023-03-01T06:09:05;0.50;99.90
58517;DHT22;44308;50.810;0.284;2023-03-01T06:11:34;0.50;99.90
58517;DHT22;44308;50.810;0.284;2023-03-01T06:13:59;0.50;99.90
58517;DHT22;44308;50.810;0.284;2023-03-01T06:16:25;0.50;99.90
58517;DHT22;44308;50.810;0.284;2023-03-01T06:18:51;0.50;99.90
58517;DHT22;44308;50.810;0.284;2023-03-01T06:21:16;0.50;99.90
58517;DHT22;44308;50.810;0.284;2023-03-01T06:23:42;0.50;99.90
58517;DHT22;44308;50.810;0.284;2023-03-01T06:26:09;0.50;99.90
58517;DHT22;44308;50.810;0.284;2023-03-01T06:28:35;0.50;99.90
58517;DHT22;44308;50.810;0.284;2023-03-01T06:31:01;0.60;99.90
58517;DHT22;44308;50.810;0.284;2023-03-01T06:33:27;0.60;99.90
58517;DHT22;44308;50.810;0.284;2023-03-01T06:35:56;0.70;99.90
58517;DHT22;44308;50.810;0.284;2023-03-01T06:38:23;0.80;99.90
58517;DHT22;44308;50.810;0.284;2023-03-01T06:40:54;0.90;99.90
58517;DHT22;44308;50.810;0.284;2023-03-01T06:43:20;1.00;99.90
58517;DHT22;44308;50.810;0.284;2023-03-01T06:45:46;1.00;99.90
58517;DHT22;44308;50.810;0.284;2023-03-01T06:48:13;1.00;99.90
58517;DHT22;44308;50.810;0.284;2023-03-01T06:50:38;1.00;99.90
58517;DHT22;44308;50.810;0.284;2023-03-01T06:53:04;1.00;99.90
58517;DHT22;44308;50.810;0.284;2023-03-01T06:55:31;0.90;99.90
58517;DHT22;44308;50.810;0.284;2023-03-01T06:57:58;0.90;99.90
58517;DHT22;44308;50.810;0.284;2023-03-01T07:00:25;0.80;99.90
58517;DHT22;44308;50.810;0.284;2023-03-01T07:02:51;0.70;99.90
58517;DHT22;44308;50.810;0.284;2023-03-01T07:05:17;0.70;99.90
58517;DHT22;44308;50.810;0.284;2023-03-01T07:07:44;0.70;99.90
58517;DHT22;44308;50.810;0.284;2023-03-01T07:10:10;0.70;99.90
58517;DHT22;44308;50.810;0.284;2023-03-01T07:12:36;0.70;99.90
58517;DHT22;44308;50.810;0.284;2023-03-01T07:15:05;0.80;99.90
58517;DHT22;44308;50.810;0.284;2023-03-01T07:17:31;0.80;99.90
58517;DHT22;44308;50.810;0.284;2023-03-01T07:19:56;0.80;99.90
58517;DHT22;44308;50.810;0.284;2023-03-01T07:22:22;0.90;99.90
58517;DHT22;44308;50.810;0.284;2023-03-01T07:24:48;0.90;99.90
58517;DHT22;44308;50.810;0.284;2023-03-01T07:27:14;0.90;99.90
58517;DHT22;44308;50.810;0.284;2023-03-01T07:29:39;1.00;99.90
58517;DHT22;44308;50.810;0.284;2023-03-01T07:32:07;1.10;99.90
58517;DHT22;44308;50.810;0.284;2023-03-01T07:34:32;1.20;99.90
58517;DHT22;44308;50.810;0.284;2023-03-01T07:36:58;1.40;99.90
58517;DHT22;44308;50.810;0.284;2023-03-01T07:39:24;1.50;99.90
58517;DHT22;44308;50.810;0.284;2023-03-01T07:41:50;1.60;99.90
58517;DHT22;44308;50.810;0.284;2023-03-01T07:44:15;1.70;99.90
58517;DHT22;44308;50.810;0.284;2023-03-01T07:46:43;1.80;99.90
58517;DHT22;44308;50.810;0.284;2023-03-01T07:49:09;1.90;99.90
58517;DHT22;44308;50.810;0.284;2023-03-01T07:51:34;2.00;99.90
58517;DHT22;44308;50.810;0.284;2023-03-01T07:54:00;2.10;99.90
58517;DHT22;44308;50.810;0.284;2023-03-01T07:56:27;2.20;99.90
58517;DHT22;44308;50.810;0.284;2023-03-01T07:58:52;2.30;99.90
58517;DHT22;44308;50.810;0.284;2023-03-01T08:01:20;2.40;99.90
58517;DHT22;44308;50.810;0.284;2023-03-01T08:03:46;2.50;99.90
58517;DHT22;44308;50.810;0.284;2023-03-01T08:06:13;2.50;99.90
58517;DHT22;44308;50.810;0.284;2023-03-01T08:08:39;2.70;99.90
58517;DHT22;44308;50.810;0.284;2023-03-01T08:11:06;2.70;99.90
58517;DHT22;44308;50.810;0.284;2023-03-01T08:13:32;2.80;99.90
58517;DHT22;44308;50.810;0.284;2023-03-01T08:16:12;2.90;99.90
58517;DHT22;44308;50.810;0.284;2023-03-01T08:18:38;2.90;99.90
58517;DHT22;44308;50.810;0.284;2023-03-01T08:21:06;3.10;99.90
58517;DHT22;44308;50.810;0.284;2023-03-01T08:23:32;3.10;99.90
58517;DHT22;44308;50.810;0.284;2023-03-01T08:26:07;3.20;99.90
58517;DHT22;44308;50.810;0.284;2023-03-01T08:28:33;3.30;99.90
58517;DHT22;44308;50.810;0.284;2023-03-01T08:30:59;3.40;99.90
58517;DHT22;44308;50.810;0.284;2023-03-01T08:33:25;3.40;99.90
58517;DHT22;44308;50.810;0.284;2023-03-01T08:35:51;3.50;99.90
58517;DHT22;44308;50.810;0.284;2023-03-01T08:38:16;3.50;99.90
58517;DHT22;44308;50.810;0.284;2023-03-01T08:40:42;3.60;99.90
58517;DHT22;44308;50.810;0.284;2023-03-01T08:43:08;3.70;99.90
58517;DHT22;44308;50.810;0.284;2023-03-01T08:45:33;3.80;99.90
58517;DHT22;44308;50.810;0.284;2023-03-01T08:47:59;3.90;99.90
58517;DHT22;44308;50.810;0.284;2023-03-01T08:50:25;4.00;99.90
58517;DHT22;44308;50.810;0.284;2023-03-01T08:52:51;4.00;99.90
58517;DHT22;44308;50.810;0.284;2023-03-01T08:55:17;4.10;99.90
58517;DHT22;44308;50.810;0.284;2023-03-01T08:57:43;4.20;99.90
58517;DHT22;44308;50.810;0.284;2023-03-01T09:00:10;4.30;99.90
58517;DHT22;44308;50.810;0.284;2023-03-01T09:02:36;4.40;99.90
58517;DHT22;44308;50.810;0.284;2023-03-01T09:05:02;4.50;99.90
58517;DHT22;44308;50.810;0.284;2023-03-01T09:07:47;4.60;99.90
58517;DHT22;44308;50.810;0.284;2023-03-01T09:10:12;4.60;99.90
58517;DHT22;44308;50.810;0.284;2023-03-01T09:12:38;4.70;99.90
58517;DHT22;44308;50.810;0.284;2023-03-01T09:15:04;4.70;99.90
58517;DHT22;44308;50.810;0.284;2023-03-01T09:17:31;4.80;99.90
58517;DHT22;44308;50.810;0.284;2023-03-01T09:19:56;4.80;99.90
58517;DHT22;44308;50.810;0.284;2023-03-01T09:22:22;4.90;99.90
58517;DHT22;44308;50.810;0.284;2023-03-01T09:24:48;5.00;99.90
58517;DHT22;44308;50.810;0.284;2023-03-01T09:27:17;5.10;99.90
58517;DHT22;44308;50.810;0.284;2023-03-01T09:29:47;5.20;99.90
58517;DHT22;44308;50.810;0.284;2023-03-01T09:32:12;5.40;99.90
58517;DHT22;44308;50.810;0.284;2023-03-01T09:34:38;5.50;99.90
58517;DHT22;44308;50.810;0.284;2023-03-01T09:37:43;5.60;99.90
58517;DHT22;44308;50.810;0.284;2023-03-01T09:40:16;5.70;99.90
58517;DHT22;44308;50.810;0.284;2023-03-01T09:42:59;5.70;99.90
58517;DHT22;44308;50.810;0.284;2023-03-01T09:45:38;5.70;99.90
58517;DHT22;44308;50.810;0.284;2023-03-01T09:48:12;6.00;99.90
58517;DHT22;44308;50.810;0.284;2023-03-01T09:50:42;6.20;99.90
58517;DHT22;44308;50.810;0.284;2023-03-01T09:53:35;6.60;99.90
58517;DHT22;44308;50.810;0.284;2023-03-01T09:56:17;7.60;99.90
58517;DHT22;44308;50.810;0.284;2023-03-01T10:09:21;10.50;99.90
58517;DHT22;44308;50.810;0.284;2023-03-01T10:11:52;10.70;99.90
58517;DHT22;44308;50.810;0.284;2023-03-01T10:14:38;11.00;99.90
58517;DHT22;44308;50.810;0.284;2023-03-01T10:17:12;11.00;99.90
58517;DHT22;44308;50.810;0.284;2023-03-01T10:19:45;11.00;99.90
58517;DHT22;44308;50.810;0.284;2023-03-01T10:22:27;10.60;99.90
58517;DHT22;44308;50.810;0.284;2023-03-01T10:24:54;10.90;99.90
58517;DHT22;44308;50.810;0.284;2023-03-01T10:27:47;10.80;99.90
58517;DHT22;44308;50.810;0.284;2023-03-01T10:32:46;10.30;99.90
58517;DHT22;44308;50.810;0.284;2023-03-01T10:35:19;10.00;99.90
58517;DHT22;44308;50.810;0.284;2023-03-01T10:38:12;9.80;99.90
58517;DHT22;44308;50.810;0.284;2023-03-01T10:40:58;10.00;99.90
58517;DHT22;44308;50.810;0.284;2023-03-01T10:43:47;9.30;99.90
58517;DHT22;44308;50.810;0.284;2023-03-01T10:51:40;9.00;99.90
58517;DHT22;44308;50.810;0.284;2023-03-01T10:56:52;8.60;99.90
58517;DHT22;44308;50.810;0.284;2023-03-01T10:59:41;8.60;99.90
58517;DHT22;44308;50.810;0.284;2023-03-01T11:02:28;8.60;99.90
58517;DHT22;44308;50.810;0.284;2023-03-01T11:11:32;9.10;99.90
58517;DHT22;44308;50.810;0.284;2023-03-01T11:16:48;9.00;99.90
58517;DHT22;44308;50.810;0.284;2023-03-01T11:19:18;8.80;99.90
58517;DHT22;44308;50.810;0.284;2023-03-01T11:22:08;8.60;99.90
58517;DHT22;44308;50.810;0.284;2023-03-01T11:24:47;8.50;99.90
58517;DHT22;44308;50.810;0.284;2023-03-01T11:27:31;8.40;99.90
58517;DHT22;44308;50.810;0.284;2023-03-01T11:36:59;8.50;99.90
58517;DHT22;44308;50.810;0.284;2023-03-01T11:39:47;8.50;99.90
58517;DHT22;44308;50.810;0.284;2023-03-01T11:42:30;8.50;99.90
58517;DHT22;44308;50.810;0.284;2023-03-01T11:45:08;8.70;99.90
58517;DHT22;44308;50.810;0.284;2023-03-01T11:52:47;8.70;99.90
58517;DHT22;44308;50.810;0.284;2023-03-01T11:55:35;8.60;99.90
58517;DHT22;44308;50.810;0.284;2023-03-01T12:03:56;8.70;99.90
58517;DHT22;44308;50.810;0.284;2023-03-01T12:09:20;8.70;99.90
58517;DHT22;44308;50.810;0.284;2023-03-01T12:21:01;9.20;99.90
58517;DHT22;44308;50.810;0.284;2023-03-01T12:28:48;9.20;99.90
58517;DHT22;44308;50.810;0.284;2023-03-01T12:31:44;9.10;99.90
58517;DHT22;44308;50.810;0.284;2023-03-01T12:43:17;9.60;99.90
58517;DHT22;44308;50.810;0.284;2023-03-01T12:48:43;9.00;99.90
58517;DHT22;44308;50.810;0.284;2023-03-01T12:51:22;8.60;99.90
58517;DHT22;44308;50.810;0.284;2023-03-01T12:53:50;8.40;99.90
58517;DHT22;44308;50.810;0.284;2023-03-01T12:56:32;8.30;99.90
58517;DHT22;44308;50.810;0.284;2023-03-01T13:10:20;8.30;99.90
58517;DHT22;44308;50.810;0.284;2023-03-01T13:18:34;8.30;99.90
58517;DHT22;44308;50.810;0.284;2023-03-01T13:26:08;8.30;99.90
58517;DHT22;44308;50.810;0.284;2023-03-01T13:31:01;8.20;99.90
58517;DHT22;44308;50.810;0.284;2023-03-01T13:35:57;8.10;99.90
58517;DHT22;44308;50.810;0.284;2023-03-01T13:41:10;8.20;99.90
58517;DHT22;44308;50.810;0.284;2023-03-01T13:43:38;8.10;99.90
58517;DHT22;44308;50.810;0.284;2023-03-01T13:46:19;8.20;99.90
58517;DHT22;44308;50.810;0.284;2023-03-01T13:48:54;8.20;99.90
58517;DHT22;44308;50.810;0.284;2023-03-01T13:51:26;8.30;99.90
58517;DHT22;44308;50.810;0.284;2023-03-01T13:53:54;8.30;99.90
58517;DHT22;44308;50.810;0.284;2023-03-01T13:56:24;8.40;99.90
58517;DHT22;44308;50.810;0.284;2023-03-01T13:59:04;8.50;99.90
58517;DHT22;44308;50.810;0.284;2023-03-01T14:01:35;8.50;99.90
58517;DHT22;44308;50.810;0.284;2023-03-01T14:04:03;8.40;99.90
58517;DHT22;44308;50.810;0.284;2023-03-01T14:06:43;8.40;99.90
58517;DHT22;44308;50.810;0.284;2023-03-01T14:09:19;8.40;99.90
58517;DHT22;44308;50.810;0.284;2023-03-01T14:11:57;8.40;99.90
58517;DHT22;44308;50.810;0.284;2023-03-01T14:14:33;8.30;99.90
58517;DHT22;44308;50.810;0.284;2023-03-01T14:19:36;8.30;99.90
58517;DHT22;44308;50.810;0.284;2023-03-01T14:22:30;8.20;99.90
58517;DHT22;44308;50.810;0.284;2023-03-01T14:25:00;8.10;99.90
58517;DHT22;44308;50.810;0.284;2023-03-01T14:27:32;8.20;99.90
58517;DHT22;44308;50.810;0.284;2023-03-01T14:30:01;8.20;99.90
58517;DHT22;44308;50.810;0.284;2023-03-01T14:32:31;8.10;99.90
58517;DHT22;44308;50.810;0.284;2023-03-01T14:34:59;8.20;99.90
58517;DHT22;44308;50.810;0.284;2023-03-01T14:37:32;8.10;99.90
58517;DHT22;44308;50.810;0.284;2023-03-01T14:40:00;8.10;99.90
58517;DHT22;44308;50.810;0.284;2023-03-01T14:42:29;8.10;99.90
58517;DHT22;44308;50.810;0.284;2023-03-01T14:44:57;8.10;99.90
58517;DHT22;44308;50.810;0.284;2023-03-01T14:47:34;8.10;99.90
58517;DHT22;44308;50.810;0.284;2023-03-01T14:50:05;8.10;99.90
58517;DHT22;44308;50.810;0.284;2023-03-01T14:52:41;8.10;99.90
58517;DHT22;44308;50.810;0.284;2023-03-01T14:55:15;8.20;99.90
58517;DHT22;44308;50.810;0.284;2023-03-01T14:57:47;8.20;99.90
58517;DHT22;44308;50.810;0.284;2023-03-01T15:00:27;8.30;99.90
58517;DHT22;44308;50.810;0.284;2023-03-01T15:02:55;8.30;99.90
58517;DHT22;44308;50.810;0.284;2023-03-01T15:05:31;8.30;99.90
58517;DHT22;44308;50.810;0.284;2023-03-01T15:07:58;8.30;99.90
58517;DHT22;44308;50.810;0.284;2023-03-01T15:10:28;8.20;99.90
58517;DHT22;44308;50.810;0.284;2023-03-01T15:12:54;8.30;99.90
58517;DHT22;44308;50.810;0.284;2023-03-01T15:15:35;8.20;99.90
58517;DHT22;44308;50.810;0.284;2023-03-01T15:18:04;8.20;99.90
58517;DHT22;44308;50.810;0.284;2023-03-01T15:20:32;8.00;99.90
58517;DHT22;44308;50.810;0.284;2023-03-01T15:23:01;8.00;99.90
58517;DHT22;44308;50.810;0.284;2023-03-01T15:25:29;8.00;99.90
58517;DHT22;44308;50.810;0.284;2023-03-01T15:27:58;7.90;99.90
58517;DHT22;44308;50.810;0.284;2023-03-01T15:30:35;8.00;99.90
58517;DHT22;44308;50.810;0.284;2023-03-01T15:35:53;8.00;99.90
58517;DHT22;44308;50.810;0.284;2023-03-01T15:41:24;8.30;99.90
58517;DHT22;44308;50.810;0.284;2023-03-01T15:43:50;8.40;99.90
58517;DHT22;44308;50.810;0.284;2023-03-01T15:46:31;8.40;99.90
58517;DHT22;44308;50.810;0.284;2023-03-01T15:49:00;8.30;99.90
58517;DHT22;44308;50.810;0.284;2023-03-01T15:51:35;8.20;99.90
58517;DHT22;44308;50.810;0.284;2023-03-01T15:54:05;8.10;99.90
58517;DHT22;44308;50.810;0.284;2023-03-01T15:56:32;8.00;99.90
58517;DHT22;44308;50.810;0.284;2023-03-01T15:58:59;8.00;99.90
58517;DHT22;44308;50.810;0.284;2023-03-01T16:01:25;8.00;99.90
58517;DHT22;44308;50.810;0.284;2023-03-01T16:03:51;8.00;99.90
58517;DHT22;44308;50.810;0.284;2023-03-01T16:06:16;8.00;99.90
58517;DHT22;44308;50.810;0.284;2023-03-01T16:08:42;8.00;99.90
58517;DHT22;44308;50.810;0.284;2023-03-01T16:11:14;8.00;99.90
58517;DHT22;44308;50.810;0.284;2023-03-01T16:13:40;8.00;99.90
58517;DHT22;44308;50.810;0.284;2023-03-01T16:16:08;7.90;99.90
58517;DHT22;44308;50.810;0.284;2023-03-01T16:18:38;7.90;99.90
58517;DHT22;44308;50.810;0.284;2023-03-01T16:21:04;7.90;99.90
58517;DHT22;44308;50.810;0.284;2023-03-01T16:23:31;7.80;99.90
58517;DHT22;44308;50.810;0.284;2023-03-01T16:26:00;7.90;99.90
58517;DHT22;44308;50.810;0.284;2023-03-01T16:28:26;7.90;99.90
58517;DHT22;44308;50.810;0.284;2023-03-01T16:30:52;7.90;99.90
58517;DHT22;44308;50.810;0.284;2023-03-01T16:33:18;7.90;99.90
58517;DHT22;44308;50.810;0.284;2023-03-01T16:35:44;7.90;99.90
58517;DHT22;44308;50.810;0.284;2023-03-01T16:38:11;7.80;99.90
58517;DHT22;44308;50.810;0.284;2023-03-01T16:40:37;7.70;99.90
58517;DHT22;44308;50.810;0.284;2023-03-01T16:43:02;7.70;99.90
58517;DHT22;44308;50.810;0.284;2023-03-01T16:45:33;7.70;99.90
58517;DHT22;44308;50.810;0.284;2023-03-01T16:48:19;7.60;99.90
58517;DHT22;44308;50.810;0.284;2023-03-01T16:50:45;7.50;99.90
58517;DHT22;44308;50.810;0.284;2023-03-01T16:53:11;7.50;99.90
58517;DHT22;44308;50.810;0.284;2023-03-01T16:55:37;7.50;99.90
58517;DHT22;44308;50.810;0.284;2023-03-01T17:01:43;7.40;99.90
58517;DHT22;44308;50.810;0.284;2023-03-01T17:04:11;7.30;99.90
58517;DHT22;44308;50.810;0.284;2023-03-01T17:06:38;7.20;99.90
58517;DHT22;44308;50.810;0.284;2023-03-01T17:09:04;7.20;99.90
58517;DHT22;44308;50.810;0.284;2023-03-01T17:11:30;7.20;99.90
58517;DHT22;44308;50.810;0.284;2023-03-01T17:13:55;7.10;99.90
58517;DHT22;44308;50.810;0.284;2023-03-01T17:16:21;7.00;99.90
58517;DHT22;44308;50.810;0.284;2023-03-01T17:18:48;7.00;99.90
58517;DHT22;44308;50.810;0.284;2023-03-01T17:21:13;6.90;99.90
58517;DHT22;44308;50.810;0.284;2023-03-01T17:23:41;6.80;99.90
58517;DHT22;44308;50.810;0.284;2023-03-01T17:26:08;6.80;99.90
58517;DHT22;44308;50.810;0.284;2023-03-01T17:28:36;6.70;99.90
58517;DHT22;44308;50.810;0.284;2023-03-01T17:31:03;6.70;99.90
58517;DHT22;44308;50.810;0.284;2023-03-01T17:33:30;6.60;99.90
58517;DHT22;44308;50.810;0.284;2023-03-01T17:35:56;6.60;99.90
58517;DHT22;44308;50.810;0.284;2023-03-01T17:38:22;6.40;99.90
58517;DHT22;44308;50.810;0.284;2023-03-01T17:40:48;6.40;99.90
58517;DHT22;44308;50.810;0.284;2023-03-01T17:43:15;6.30;99.90
58517;DHT22;44308;50.810;0.284;2023-03-01T17:45:42;6.30;99.90
58517;DHT22;44308;50.810;0.284;2023-03-01T17:48:14;6.20;99.90
58517;DHT22;44308;50.810;0.284;2023-03-01T17:50:40;6.20;99.90
58517;DHT22;44308;50.810;0.284;2023-03-01T17:53:09;6.00;99.90
58517;DHT22;44308;50.810;0.284;2023-03-01T17:55:39;5.90;99.90
58517;DHT22;44308;50.810;0.284;2023-03-01T17:58:07;5.80;99.90
58517;DHT22;44308;50.810;0.284;2023-03-01T18:00:34;5.70;99.90
58517;DHT22;44308;50.810;0.284;2023-03-01T18:02:59;5.70;99.90
58517;DHT22;44308;50.810;0.284;2023-03-01T18:05:25;5.60;99.90
58517;DHT22;44308;50.810;0.284;2023-03-01T18:07:52;5.60;99.90
58517;DHT22;44308;50.810;0.284;2023-03-01T18:10:18;5.60;99.90